createdAt,value
2022-12-09T00:01:08.632Z,95923.34
2022-12-09T00:03:35.656Z,95924.63
2022-12-09T00:06:10.583Z,95919.06
2022-12-09T00:08:37.581Z,95909.69
2022-12-09T00:11:04.737Z,95909.50
2022-12-09T00:13:31.536Z,95905.94
2022-12-09T00:15:58.407Z,95903.78
2022-12-09T00:18:25.626Z,95904.94
2022-12-09T00:20:52.573Z,95892.69
2022-12-09T00:23:19.391Z,95884.41
2022-12-09T00:25:46.118Z,95890.53
2022-12-09T00:28:12.946Z,95885.69
2022-12-09T00:30:39.777Z,95875.25
2022-12-09T00:33:06.648Z,95876.97
2022-12-09T00:35:33.406Z,95878.94
2022-12-09T00:38:00.231Z,95872.81
2022-12-09T00:40:27.038Z,95880.22
2022-12-09T00:42:53.837Z,95871.25
2022-12-09T00:45:20.820Z,95869.66
2022-12-09T00:47:47.847Z,95859.25
2022-12-09T00:50:15.890Z,95857.53
2022-12-09T00:52:42.667Z,95858.06
2022-12-09T00:55:09.901Z,95856.31
2022-12-09T00:57:37.054Z,95846.09
2022-12-09T01:00:05.262Z,95854.75
2022-12-09T01:02:32.590Z,95843.78
2022-12-09T01:04:59.957Z,95834.25
2022-12-09T01:07:26.962Z,95837.53
2022-12-09T01:09:53.609Z,95835.38
2022-12-09T01:12:20.593Z,95827.28
2022-12-09T01:14:47.659Z,95823.84
2022-12-09T01:17:14.533Z,95827.66
2022-12-09T01:19:41.388Z,95824.81
2022-12-09T01:22:08.393Z,95824.66
2022-12-09T01:24:35.145Z,95822.38
2022-12-09T01:27:01.938Z,95821.63
2022-12-09T01:29:28.837Z,95829.13
2022-12-09T01:31:55.838Z,95826.28
2022-12-09T01:34:22.715Z,95823.72
2022-12-09T01:36:50.761Z,95823.88
2022-12-09T01:39:17.815Z,95831.97
2022-12-09T01:41:45.879Z,95833.25
2022-12-09T01:44:19.574Z,95832.94
2022-12-09T01:46:47.037Z,95825.41
2022-12-09T01:49:24.064Z,95830.66
2022-12-09T01:51:56.974Z,95821.66
2022-12-09T01:54:25.857Z,95818.13
2022-12-09T01:56:54.108Z,95811.81
2022-12-09T01:59:21.346Z,95796.75
2022-12-09T02:01:50.911Z,95804.69
2022-12-09T02:04:17.999Z,95804.13
2022-12-09T02:06:45.061Z,95794.59
2022-12-09T02:09:13.872Z,95787.06
2022-12-09T02:12:00.167Z,95786.91
2022-12-09T02:14:32.615Z,95786.59
2022-12-09T02:17:15.291Z,95776.88
2022-12-09T02:20:01.874Z,95775.47
2022-12-09T02:22:35.288Z,95764.50
2022-12-09T02:25:05.340Z,95768.50
2022-12-09T02:27:46.628Z,95775.16
2022-12-09T02:30:20.685Z,95766.75
2022-12-09T02:32:49.981Z,95770.69
2022-12-09T02:35:51.326Z,95765.88
2022-12-09T02:38:27.743Z,95758.91
2022-12-09T02:40:58.133Z,95760.84
2022-12-09T02:43:27.450Z,95756.03
2022-12-09T02:45:56.253Z,95760.00
2022-12-09T02:48:29.030Z,95753.00
2022-12-09T02:50:57.549Z,95754.28
2022-12-09T02:53:25.189Z,95748.88
2022-12-09T02:55:54.970Z,95747.47
2022-12-09T02:58:21.909Z,95744.03
2022-12-09T03:00:58.548Z,95735.94
2022-12-09T03:03:36.075Z,95741.19
2022-12-09T03:06:14.452Z,95742.63
2022-12-09T03:09:11.374Z,95745.31
2022-12-09T03:11:38.420Z,95748.41
2022-12-09T03:14:38.906Z,95749.69
2022-12-09T03:17:28.747Z,95732.06
2022-12-09T03:20:04.906Z,95723.78
2022-12-09T03:22:34.962Z,95723.78
2022-12-09T03:25:15.959Z,95716.97
2022-12-09T03:27:54.251Z,95715.56
2022-12-09T03:30:21.248Z,95715.00
2022-12-09T03:32:48.477Z,95705.47
2022-12-09T03:35:21.371Z,95702.06
2022-12-09T03:37:48.976Z,95693.97
2022-12-09T03:40:20.137Z,95693.25
2022-12-09T03:42:51.458Z,95687.84
2022-12-09T03:45:18.992Z,95688.56
2022-12-09T03:47:46.052Z,95698.78
2022-12-09T03:50:14.131Z,95694.66
2022-12-09T03:52:45.167Z,95688.56
2022-12-09T03:55:15.172Z,95686.56
2022-12-09T03:57:43.435Z,95683.31
2022-12-09T04:00:16.474Z,95682.59
2022-12-09T04:02:45.359Z,95673.06
2022-12-09T04:05:12.528Z,95671.81
2022-12-09T04:07:39.706Z,95659.00
2022-12-09T04:10:07.537Z,95659.72
2022-12-09T04:12:35.235Z,95657.03
2022-12-09T04:15:02.046Z,95661.19
2022-12-09T04:17:28.977Z,95663.88
2022-12-09T04:19:57.416Z,95657.91
2022-12-09T04:22:24.221Z,95659.34
2022-12-09T04:24:51.276Z,95649.81
2022-12-09T04:27:18.365Z,95649.81
2022-12-09T04:29:45.718Z,95644.97
2022-12-09T04:32:12.777Z,95641.00
2022-12-09T04:34:40.160Z,95640.28
2022-12-09T04:37:06.964Z,95637.03
2022-12-09T04:39:34.351Z,95639.00
2022-12-09T04:42:01.271Z,95634.31
2022-12-09T04:44:28.036Z,95635.03
2022-12-09T04:46:54.900Z,95627.50
2022-12-09T04:49:21.733Z,95628.94
2022-12-09T04:51:48.508Z,95631.63
2022-12-09T04:54:15.483Z,95632.34
2022-12-09T04:56:42.476Z,95621.53
2022-12-09T04:59:09.442Z,95621.53
2022-12-09T05:01:36.404Z,95627.66
2022-12-09T05:04:04.179Z,95626.22
2022-12-09T05:06:31.319Z,95620.13
2022-12-09T05:08:58.700Z,95630.34
2022-12-09T05:11:25.996Z,95624.94
2022-12-09T05:13:53.951Z,95628.94
2022-12-09T05:16:21.438Z,95633.75
2022-12-09T05:18:49.101Z,95624.25
2022-12-09T05:21:20.924Z,95620.25
2022-12-09T05:23:48.555Z,95624.38
2022-12-09T05:26:17.918Z,95625.13
2022-12-09T05:28:45.059Z,95613.03
2022-12-09T05:31:18.064Z,95613.03
2022-12-09T05:33:46.105Z,95613.75
2022-12-09T05:36:15.128Z,95618.59
2022-12-09T05:38:43.030Z,95617.31
2022-12-09T05:41:10.387Z,95607.22
2022-12-09T05:43:38.382Z,95610.66
2022-12-09T05:46:06.072Z,95619.47
2022-12-09T05:48:33.547Z,95603.41
2022-12-09T05:51:06.205Z,95608.81
2022-12-09T05:53:33.985Z,95612.22
2022-12-09T05:56:01.083Z,95608.25
2022-12-09T05:58:28.285Z,95612.34
2022-12-09T06:00:56.904Z,95601.03
2022-12-09T06:03:25.134Z,95605.84
2022-12-09T06:05:52.337Z,95603.28
2022-12-09T06:08:19.755Z,95604.75
2022-12-09T06:10:47.452Z,95595.94
2022-12-09T06:13:15.877Z,95598.06
2022-12-09T06:15:43.092Z,95602.88
2022-12-09T06:18:10.632Z,95600.91
2022-12-09T06:20:42.575Z,95599.47
2022-12-09T06:23:10.230Z,95599.63
2022-12-09T06:25:37.095Z,95601.06
2022-12-09T06:28:04.749Z,95606.59
2022-12-09T06:30:31.962Z,95601.34
2022-12-09T06:33:00.632Z,95605.50
2022-12-09T06:35:27.883Z,95590.84
2022-12-09T06:37:54.814Z,95597.13
2022-12-09T06:40:22.797Z,95592.56
2022-12-09T06:42:51.361Z,95592.44
2022-12-09T06:45:19.455Z,95596.56
2022-12-09T06:47:47.565Z,95599.25
2022-12-09T06:50:14.649Z,95595.28
2022-12-09T06:52:42.122Z,95599.41
2022-12-09T06:55:11.224Z,95593.28
2022-12-09T06:57:38.345Z,95589.78
2022-12-09T07:00:05.890Z,95590.28
2022-12-09T07:02:36.198Z,95586.91
2022-12-09T07:05:04.717Z,95593.38
2022-12-09T07:07:33.343Z,95584.03
2022-12-09T07:10:09.039Z,95589.59
2022-12-09T07:12:40.158Z,95596.75
2022-12-09T07:15:09.309Z,95588.72
2022-12-09T07:17:37.024Z,95581.25
2022-12-09T07:20:07.283Z,95581.91
2022-12-09T07:22:35.114Z,95582.88
2022-12-09T07:25:02.297Z,95581.03
2022-12-09T07:27:30.396Z,95591.25
2022-12-09T07:29:59.746Z,95587.69
2022-12-09T07:32:34.875Z,95581.44
2022-12-09T07:35:02.383Z,95583.41
2022-12-09T07:37:29.712Z,95578.56
2022-12-09T07:39:56.586Z,95585.38
2022-12-09T07:42:23.442Z,95579.28
2022-12-09T07:44:54.625Z,95584.13
2022-12-09T07:47:21.612Z,95584.28
2022-12-09T07:49:49.179Z,95574.94
2022-12-09T07:52:16.366Z,95581.69
2022-12-09T07:54:43.144Z,95586.84
2022-12-09T07:57:10.728Z,95583.34
2022-12-09T07:59:37.911Z,95583.66
2022-12-09T08:02:12.457Z,95592.53
2022-12-09T08:04:40.469Z,95593.34
2022-12-09T08:07:09.183Z,95595.22
2022-12-09T08:09:36.171Z,95594.41
2022-12-09T08:12:06.950Z,95595.19
2022-12-09T08:14:35.392Z,95595.97
2022-12-09T08:17:02.628Z,95590.78
2022-12-09T08:19:29.645Z,95594.81
2022-12-09T08:21:56.844Z,95586.75
2022-12-09T08:24:23.669Z,95585.06
2022-12-09T08:26:51.449Z,95585.94
2022-12-09T08:29:18.598Z,95588.94
2022-12-09T08:31:45.701Z,95582.44
2022-12-09T08:34:14.324Z,95583.84
2022-12-09T08:36:41.950Z,95586.69
2022-12-09T08:39:10.436Z,95584.69
2022-12-09T08:41:39.146Z,95586.28
2022-12-09T08:44:14.466Z,95578.19
2022-12-09T08:46:45.812Z,95590.97
2022-12-09T08:49:14.296Z,95585.25
2022-12-09T08:51:41.407Z,95593.06
2022-12-09T08:54:08.524Z,95589.34
2022-12-09T08:56:36.001Z,95588.88
2022-12-09T08:59:03.751Z,95593.44
2022-12-09T09:01:37.534Z,95601.09
2022-12-09T09:04:17.124Z,95598.06
2022-12-09T09:06:46.648Z,95592.94
2022-12-09T09:09:14.554Z,95588.81
2022-12-09T09:11:43.150Z,95594.75
2022-12-09T09:14:11.564Z,95596.91
2022-12-09T09:16:40.863Z,95589.81
2022-12-09T09:19:08.723Z,95581.31
2022-12-09T09:21:36.107Z,95590.13
2022-12-09T09:24:08.679Z,95585.44
2022-12-09T09:26:36.246Z,95578.59
2022-12-09T09:29:02.922Z,95590.56
2022-12-09T09:31:30.431Z,95589.78
2022-12-09T09:33:57.832Z,95582.13
2022-12-09T09:36:25.266Z,95577.47
2022-12-09T09:38:54.930Z,95581.78
2022-12-09T09:41:34.761Z,95581.41
2022-12-09T09:44:02.025Z,95590.22
2022-12-09T09:46:45.254Z,95590.25
2022-12-09T09:49:19.040Z,95586.03
2022-12-09T09:51:47.698Z,95595.41
2022-12-09T09:54:15.362Z,95590.59
2022-12-09T09:56:47.251Z,95597.00
2022-12-09T09:59:22.990Z,95598.84
2022-12-09T10:02:18.785Z,95594.59
2022-12-09T10:04:46.289Z,95586.91
2022-12-09T10:07:20.145Z,95590.19
2022-12-09T10:10:06.593Z,95583.34
2022-12-09T10:12:43.882Z,95585.78
2022-12-09T10:15:18.112Z,95592.16
2022-12-09T10:17:51.202Z,95577.22
2022-12-09T10:20:25.578Z,95578.09
2022-12-09T10:22:54.233Z,95573.09
2022-12-09T10:25:25.403Z,95567.97
2022-12-09T10:27:59.709Z,95563.41
2022-12-09T10:30:32.169Z,95561.56
2022-12-09T10:33:03.835Z,95557.81
2022-12-09T10:35:31.049Z,95556.81
2022-12-09T10:38:06.904Z,95550.38
2022-12-09T10:40:55.156Z,95550.53
2022-12-09T10:43:42.034Z,95549.38
2022-12-09T10:46:24.367Z,95550.94
2022-12-09T10:48:56.000Z,95553.47
2022-12-09T10:51:29.187Z,95553.34
2022-12-09T10:54:21.952Z,95548.91
2022-12-09T10:57:29.915Z,95541.91
2022-12-09T11:00:03.949Z,95544.63
2022-12-09T11:02:38.287Z,95546.16
2022-12-09T11:05:34.013Z,95545.72
2022-12-09T11:08:01.848Z,95551.03
2022-12-09T11:10:29.991Z,95550.03
2022-12-09T11:13:03.817Z,95551.84
2022-12-09T11:15:38.935Z,95554.75
2022-12-09T11:18:09.580Z,95556.66
2022-12-09T11:20:37.011Z,95548.53
2022-12-09T11:23:14.286Z,95556.03
2022-12-09T11:25:57.009Z,95541.03
2022-12-09T11:28:31.986Z,95538.19
2022-12-09T11:31:28.263Z,95542.53
2022-12-09T11:34:20.725Z,95537.66
2022-12-09T11:36:53.097Z,95542.94
2022-12-09T11:39:23.118Z,95531.97
2022-12-09T11:42:22.019Z,95534.34
2022-12-09T11:44:57.878Z,95532.50
2022-12-09T11:47:50.083Z,95538.19
2022-12-09T11:50:24.208Z,95530.13
2022-12-09T11:53:09.804Z,95535.09
2022-12-09T11:55:46.911Z,95520.81
2022-12-09T11:58:36.526Z,95517.81
2022-12-09T12:01:08.404Z,95525.94
2022-12-09T12:03:40.035Z,95518.91
2022-12-09T12:06:14.449Z,95523.41
2022-12-09T12:09:07.717Z,95523.47
2022-12-09T12:11:56.573Z,95521.28
2022-12-09T12:14:26.729Z,95528.19
2022-12-09T12:17:03.246Z,95524.88
2022-12-09T12:19:39.395Z,95530.47
2022-12-09T12:22:24.838Z,95515.00
2022-12-09T12:25:17.218Z,95521.22
2022-12-09T12:28:06.511Z,95524.78
2022-12-09T12:30:57.528Z,95523.94
2022-12-09T12:34:00.869Z,95523.47
2022-12-09T12:36:59.321Z,95514.31
2022-12-09T12:39:52.658Z,95514.84
2022-12-09T12:42:32.413Z,95516.38
2022-12-09T12:45:34.463Z,95520.66
2022-12-09T12:48:07.726Z,95518.44
2022-12-09T12:50:34.997Z,95517.81
2022-12-09T12:53:10.821Z,95525.19
2022-12-09T12:55:48.980Z,95522.06
2022-12-09T12:58:31.697Z,95517.97
2022-12-09T13:01:30.109Z,95529.00
2022-12-09T13:04:20.934Z,95529.34
2022-12-09T13:07:05.921Z,95534.91
2022-12-09T13:09:43.832Z,95531.91
2022-12-09T13:12:17.166Z,95525.34
2022-12-09T13:14:52.254Z,95524.25
2022-12-09T13:17:21.345Z,95528.56
2022-12-09T13:19:51.665Z,95535.69
2022-12-09T13:22:25.910Z,95530.66
2022-12-09T13:24:59.975Z,95537.09
2022-12-09T13:27:38.070Z,95552.72
2022-12-09T13:30:14.111Z,95544.44
2022-12-09T13:33:17.357Z,95535.91
2022-12-09T13:35:54.803Z,95535.09
2022-12-09T13:38:24.573Z,95534.84
2022-12-09T13:40:51.358Z,95538.69
2022-12-09T13:43:38.272Z,95534.50
2022-12-09T13:46:05.043Z,95539.59
2022-12-09T13:48:40.372Z,95540.63
2022-12-09T13:51:07.195Z,95537.47
2022-12-09T13:53:45.976Z,95540.63
2022-12-09T13:56:16.689Z,95537.78
2022-12-09T13:58:50.436Z,95540.09
2022-12-09T14:01:25.856Z,95534.31
2022-12-09T14:04:01.318Z,95546.28
2022-12-09T14:07:10.451Z,95547.16
2022-12-09T14:09:58.463Z,95556.81
2022-12-09T14:13:07.742Z,95552.69
2022-12-09T14:15:36.262Z,95552.53
2022-12-09T14:18:05.497Z,95556.09
2022-12-09T14:20:36.247Z,95560.91
2022-12-09T14:23:11.882Z,95560.63
2022-12-09T14:25:38.637Z,95562.06
2022-12-09T14:28:14.220Z,95566.75
2022-12-09T14:30:47.208Z,95566.91
2022-12-09T14:33:29.301Z,95567.59
2022-12-09T14:36:13.672Z,95566.19
2022-12-09T14:39:32.506Z,95574.31
2022-12-09T14:42:03.446Z,95572.03
2022-12-09T14:44:51.399Z,95574.44
2022-12-09T14:47:31.751Z,95578.44
2022-12-09T14:50:09.033Z,95577.91
2022-12-09T14:52:36.257Z,95570.63
2022-12-09T14:55:07.119Z,95575.63
2022-12-09T14:57:37.690Z,95576.78
2022-12-09T15:00:06.945Z,95573.81
2022-12-09T15:02:34.195Z,95573.22
2022-12-09T15:05:02.090Z,95579.38
2022-12-09T15:07:33.420Z,95591.31
2022-12-09T15:10:06.566Z,95585.06
2022-12-09T15:12:36.574Z,95582.66
2022-12-09T15:15:15.832Z,95586.47
2022-12-09T15:17:54.587Z,95587.19
2022-12-09T15:20:40.844Z,95600.56
2022-12-09T15:23:19.505Z,95598.72
2022-12-09T15:25:48.705Z,95602.69
2022-12-09T15:28:26.092Z,95604.09
2022-12-09T15:31:00.530Z,95609.78
2022-12-09T15:33:30.411Z,95605.19
2022-12-09T15:36:09.745Z,95610.44
2022-12-09T15:38:45.121Z,95607.31
2022-12-09T15:41:30.535Z,95612.28
2022-12-09T15:44:01.750Z,95616.34
2022-12-09T15:46:30.677Z,95613.34
2022-12-09T15:48:58.331Z,95606.78
2022-12-09T15:51:26.795Z,95612.59
2022-12-09T15:54:00.495Z,95615.72
2022-12-09T15:56:30.947Z,95619.53
2022-12-09T15:59:02.036Z,95621.78
2022-12-09T16:01:31.130Z,95625.47
2022-12-09T16:04:00.130Z,95629.13
2022-12-09T16:06:33.808Z,95621.47
2022-12-09T16:09:01.897Z,95627.84
2022-12-09T16:11:36.152Z,95623.91
2022-12-09T16:14:03.054Z,95638.34
2022-12-09T16:16:47.997Z,95641.25
2022-12-09T16:19:41.837Z,95640.72
2022-12-09T16:22:16.204Z,95647.00
2022-12-09T16:25:13.496Z,95644.19
2022-12-09T16:27:40.085Z,95649.91
2022-12-09T16:30:14.189Z,95651.22
2022-12-09T16:32:44.638Z,95655.78
2022-12-09T16:35:11.339Z,95652.25
2022-12-09T16:37:40.543Z,95645.69
2022-12-09T16:40:23.578Z,95635.47
2022-12-09T16:42:52.264Z,95628.91
2022-12-09T16:45:35.445Z,95633.31
2022-12-09T16:48:02.918Z,95632.91
2022-12-09T16:50:54.390Z,95635.75
2022-12-09T16:53:33.042Z,95638.03
2022-12-09T16:56:01.802Z,95638.16
2022-12-09T16:58:30.738Z,95641.16
2022-12-09T17:00:58.445Z,95641.31
2022-12-09T17:03:41.350Z,95649.56
2022-12-09T17:06:17.944Z,95647.56
2022-12-09T17:08:45.843Z,95656.53
2022-12-09T17:11:13.045Z,95656.69
2022-12-09T17:13:39.839Z,95659.53
2022-12-09T17:16:07.203Z,95662.41
2022-12-09T17:18:34.384Z,95665.81
2022-12-09T17:21:07.547Z,95660.53
2022-12-09T17:23:39.678Z,95660.66
2022-12-09T17:26:09.271Z,95660.81
2022-12-09T17:28:36.614Z,95670.50
2022-12-09T17:31:08.367Z,95664.53
2022-12-09T17:33:35.349Z,95667.38
2022-12-09T17:36:02.101Z,95674.19
2022-12-09T17:38:29.590Z,95667.66
2022-12-09T17:40:56.929Z,95675.19
2022-12-09T17:43:23.744Z,95676.63
2022-12-09T17:45:50.482Z,95676.19
2022-12-09T17:48:17.337Z,95676.91
2022-12-09T17:50:44.376Z,95679.03
2022-12-09T17:53:11.149Z,95677.19
2022-12-09T17:55:39.099Z,95676.63
2022-12-09T17:58:06.042Z,95682.19
2022-12-09T18:00:33.808Z,95686.44
2022-12-09T18:03:00.798Z,95690.56
2022-12-09T18:05:27.471Z,95692.72
2022-12-09T18:07:54.302Z,95691.44
2022-12-09T18:10:21.219Z,95690.84
2022-12-09T18:12:48.038Z,95689.00
2022-12-09T18:15:15.071Z,95692.56
2022-12-09T18:17:41.955Z,95693.28
2022-12-09T18:20:09.758Z,95688.56
2022-12-09T18:22:36.694Z,95689.47
2022-12-09T18:25:03.360Z,95688.16
2022-12-09T18:27:30.403Z,95686.16
2022-12-09T18:29:57.181Z,95692.44
2022-12-09T18:32:23.954Z,95681.59
2022-12-09T18:34:51.103Z,95695.28
2022-12-09T18:37:19.654Z,95694.00
2022-12-09T18:39:46.320Z,95697.56
2022-12-09T18:42:13.113Z,95702.41
2022-12-09T18:44:39.833Z,95703.13
2022-12-09T18:47:06.589Z,95702.41
2022-12-09T18:49:33.304Z,95702.25
2022-12-09T18:52:00.022Z,95706.25
2022-12-09T18:54:28.548Z,95707.84
2022-12-09T18:56:56.668Z,95701.97
2022-12-09T18:59:25.632Z,95701.41
2022-12-09T19:01:52.707Z,95702.25
2022-12-09T19:04:24.977Z,95712.53
2022-12-09T19:06:53.839Z,95706.53
2022-12-09T19:09:22.789Z,95716.78
2022-12-09T19:11:50.748Z,95706.66
2022-12-09T19:14:19.835Z,95719.50
2022-12-09T19:16:47.357Z,95721.06
2022-12-09T19:19:23.713Z,95721.06
2022-12-09T19:21:51.212Z,95717.06
2022-12-09T19:24:20.999Z,95717.06
2022-12-09T19:26:48.552Z,95718.59
2022-12-09T19:29:15.956Z,95719.91
2022-12-09T19:31:49.132Z,95732.75
2022-12-09T19:34:22.826Z,95731.44
2022-12-09T19:36:54.104Z,95734.88
2022-12-09T19:39:23.661Z,95730.19
2022-12-09T19:41:51.002Z,95732.16
2022-12-09T19:44:37.240Z,95731.19
2022-12-09T19:47:06.513Z,95734.16
2022-12-09T19:49:33.328Z,95739.75
2022-12-09T19:52:00.231Z,95731.72
2022-12-09T19:54:29.632Z,95734.59
2022-12-09T19:56:56.924Z,95734.59
2022-12-09T19:59:23.839Z,95729.88
2022-12-09T20:01:50.643Z,95725.88
2022-12-09T20:07:09.347Z,95732.84
2022-12-09T20:09:37.407Z,95730.72
2022-12-09T20:12:04.395Z,95726.88
2022-12-09T20:14:31.118Z,95730.31
2022-12-09T20:16:57.854Z,95729.72
2022-12-09T20:19:24.825Z,95737.25
2022-12-09T20:21:51.657Z,95735.25
2022-12-09T20:24:19.231Z,95743.41
2022-12-09T20:26:46.079Z,95733.28
2022-12-09T20:29:12.789Z,95734.00
2022-12-09T20:31:41.057Z,95744.97
2022-12-09T20:34:11.812Z,95744.97
2022-12-09T20:36:39.776Z,95740.94
2022-12-09T20:39:12.497Z,95743.25
2022-12-09T20:41:39.979Z,95744.38
2022-12-09T20:44:16.199Z,95746.38
2022-12-09T20:46:50.428Z,95751.09
2022-12-09T20:49:19.736Z,95750.53
2022-12-09T20:51:52.599Z,95747.81
2022-12-09T20:54:21.082Z,95747.97
2022-12-09T20:56:48.874Z,95744.53
2022-12-09T20:59:15.716Z,95743.97
2022-12-09T21:01:43.758Z,95744.66
2022-12-09T21:04:10.602Z,95741.38
2022-12-09T21:06:38.739Z,95747.50
2022-12-09T21:09:14.973Z,95742.81
2022-12-09T21:11:41.926Z,95751.09
2022-12-09T21:14:09.568Z,95744.94
2022-12-09T21:16:39.625Z,95745.66
2022-12-09T21:19:10.416Z,95752.50
2022-12-09T21:21:38.851Z,95751.75
2022-12-09T21:24:06.151Z,95748.66
2022-12-09T21:26:33.017Z,95760.06
2022-12-09T21:29:01.478Z,95757.91
2022-12-09T21:31:31.467Z,95753.22
2022-12-09T21:34:01.796Z,95759.34
2022-12-09T21:36:31.596Z,95757.34
2022-12-09T21:38:58.381Z,95755.34
2022-12-09T21:41:30.233Z,95753.22
2022-12-09T21:43:57.917Z,95756.78
2022-12-09T21:46:26.966Z,95763.63
2022-12-09T21:49:01.594Z,95759.63
2022-12-09T21:51:30.316Z,95761.03
2022-12-09T21:53:57.572Z,95763.75
2022-12-09T21:56:26.042Z,95761.03
2022-12-09T21:58:54.261Z,95760.34
2022-12-09T22:01:21.083Z,95762.47
2022-12-09T22:03:48.635Z,95761.75
2022-12-09T22:06:16.686Z,95757.78
2022-12-09T22:08:44.015Z,95764.63
2022-12-09T22:11:17.026Z,95768.03
2022-12-09T22:13:44.457Z,95772.16
2022-12-09T22:16:13.615Z,95770.03
2022-12-09T22:18:40.958Z,95775.59
2022-12-09T22:21:24.870Z,95779.72
2022-12-09T22:23:57.361Z,95779.00
2022-12-09T22:26:33.397Z,95773.59
2022-12-09T22:29:08.553Z,95785.84
2022-12-09T22:31:40.745Z,95789.28
2022-12-09T22:34:11.712Z,95791.97
2022-12-09T22:36:38.729Z,95794.69
2022-12-09T22:39:08.909Z,95791.97
2022-12-09T22:41:35.772Z,95790.13
2022-12-09T22:44:03.350Z,95795.44
2022-12-09T22:46:32.943Z,95792.72
2022-12-09T22:49:05.282Z,95796.84
2022-12-09T22:51:34.751Z,95795.56
2022-12-09T22:54:04.188Z,95796.13
2022-12-09T22:56:31.013Z,95791.44
2022-12-09T22:58:59.574Z,95797.41
2022-12-09T23:01:32.729Z,95793.44
2022-12-09T23:04:00.075Z,95796.97
2022-12-09T23:06:28.278Z,95805.28
2022-12-09T23:08:55.503Z,95805.97
2022-12-09T23:11:25.149Z,95797.84
2022-12-09T23:13:52.202Z,95801.25
2022-12-09T23:16:21.559Z,95801.25
2022-12-09T23:18:48.663Z,95803.97
2022-12-09T23:21:21.857Z,95794.41
2022-12-09T23:23:52.002Z,95809.41
2022-12-09T23:26:23.501Z,95803.25
2022-12-09T23:28:52.020Z,95813.41
2022-12-09T23:31:21.298Z,95811.41
2022-12-09T23:33:49.031Z,95817.53
2022-12-09T23:36:24.800Z,95809.94
2022-12-09T23:38:58.592Z,95809.94
2022-12-09T23:41:33.392Z,95809.25
2022-12-09T23:44:01.118Z,95799.25
2022-12-09T23:46:28.548Z,95801.25
2022-12-09T23:48:55.909Z,95794.41
2022-12-09T23:51:28.518Z,95798.41
2022-12-09T23:54:00.582Z,95801.09
2022-12-09T23:56:29.528Z,95805.97
2022-12-09T23:59:00.573Z,95797.69
